메인 페이지
METAR-TAF:

METAR-TAF

공항 :

Eau Claire, 위스콘신, 미국

위도: 44-51-55N, 경도: 091-29-06W, 고도: 277m

현재 날씨관측

예보는 18분 전, 21:56시(UTC)에 발표되었습니다.
북북서5kt
온도 -2°C
습도 86%
기압 1026 hPa
시정: 1.6km
고도 800ft 상공 구름 조금
고도 2300ft 상공 흐림
약한눈, 박무

METAR: KEAU 252156Z 33005KT 1SM -SN BR FEW008 OVC023 M02/M04 A3030 RMK AO2 SLP272 P0001 T10221044

시각: 17:14 (22:14 UTC)

예보

예보는 2 시간 32분 전, 19:42시(UTC)에 발표되었습니다.
예보 대상 시간: 25일 20시부터 26일 18시까지 (UTC)
7kt
시정: 2.4km
고도 1500ft 상공 흐림
약한눈, 박무
일시적
25일 20시부터 25일 24시까지 (UTC)
시정: 1.6km
고도 1500ft 상공 구름 보통
고도 2000ft 상공 흐림
약한눈, 박무
26일 0000시부터 (UTC)
북북서7kt
시정: 1.6km
고도 2500ft 상공 흐림
약한눈, 박무
일시적
26일 02시부터 26일 06시까지 (UTC)
시정: 1.6km
박무
26일 0600시부터 (UTC)
서북서5kt
시정: 10km
고도 3000ft 상공 구름 보통
고도 10000ft 상공 흐림

TAF: KEAU 251942Z 2520/2618 35007KT 1 1/2SM -SN BR OVC015 TEMPO 2520/2524 3SM -SN BR SCT015 OVC020 FM260000 33007KT 4SM -SN BR OVC025 TEMPO 2602/2606 6SM BR FM260600 30005KT P6SM SCT030 OVC100

4,000개 이상의 공항 관측 자료 및 예보 (METAR 및 TAF 보고).

지도상에서 검색 가능한 기상관측소가 노란 점과 빨간 점으로 표시되어 있습니다.

기상관측소 명을 보려면 표시 위로 마우스를 이동하세요.

날씨 관측과 예보를 보려면 클릭하세요.

지도 변경 : 확대하려면 엑스 표시가 있는 녹색 버튼, 축소하려면 빼기 표시가 있는 녹색 버튼, 다음 페이지의 지도를 보려면 녹색 화살표를 클릭하세요.


METAR-TAF: